Time;durP1;ratioP1;P1;durP2;ratioP2;P2;SDS_P1;SDS_P2;PMS_P1;PMS_P2;Temp;Humidity;BMP_temperature;BMP_pressure;BME280_temperature;BME280_humidity;BME280_pressure;Samples;Min_cycle;Max_cycle;Signal;HPM_P1;HPM_P2
2021/11/13 00:02:17;;;;;;;24.83;16.70;;;9.70;99.90;;;;;;5072929;28;20021;-88
2021/11/13 00:04:43;;;;;;;23.60;16.15;;;9.70;99.90;;;;;;5063622;28;20033;-88
2021/11/13 00:07:09;;;;;;;22.65;15.73;;;9.70;99.90;;;;;;5075384;28;20026;-88
2021/11/13 00:09:34;;;;;;;33.00;17.88;;;9.70;99.90;;;;;;5070063;28;20029;-89
2021/11/13 00:12:00;;;;;;;24.90;17.38;;;9.70;99.90;;;;;;5077395;28;20047;-88
2021/11/13 00:14:28;;;;;;;24.27;16.63;;;9.70;99.90;;;;;;5092179;28;20025;-89
2021/11/13 00:16:55;;;;;;;24.35;15.65;;;9.60;99.90;;;;;;5109026;28;20023;-89
2021/11/13 00:19:20;;;;;;;25.15;17.65;;;9.70;99.90;;;;;;5072309;28;20032;-90
2021/11/13 00:21:46;;;;;;;25.90;17.42;;;9.70;99.90;;;;;;5062329;28;20036;-89
2021/11/13 00:24:12;;;;;;;26.75;17.23;;;9.70;99.90;;;;;;5050774;28;20011;-91
2021/11/13 00:26:38;;;;;;;30.33;18.52;;;9.70;99.90;;;;;;5053133;28;20035;-88
2021/11/13 00:29:05;;;;;;;26.35;17.25;;;9.70;99.90;;;;;;5082758;28;20012;-89
2021/11/13 00:31:31;;;;;;;27.83;17.85;;;9.70;99.90;;;;;;5081528;28;20013;-90
2021/11/13 00:33:59;;;;;;;27.60;18.27;;;9.60;99.90;;;;;;5080630;28;20037;-90
2021/11/13 00:36:24;;;;;;;30.67;18.90;;;9.70;99.90;;;;;;5099712;28;20048;-91
2021/11/13 00:38:50;;;;;;;27.40;17.63;;;9.70;99.90;;;;;;5081760;28;20281;-91
2021/11/13 00:41:16;;;;;;;27.50;17.65;;;9.70;99.90;;;;;;5061545;28;20029;-91
2021/11/13 00:43:42;;;;;;;29.90;19.15;;;9.70;99.90;;;;;;5073857;28;20082;-92
2021/11/13 00:46:07;;;;;;;28.42;19.33;;;9.70;99.90;;;;;;5075914;28;20051;-92
2021/11/13 00:48:33;;;;;;;24.58;16.98;;;9.70;99.90;;;;;;5073504;28;20036;-91
2021/11/13 00:50:59;;;;;;;27.48;17.70;;;9.70;99.90;;;;;;5073863;28;20012;-89
2021/11/13 00:53:24;;;;;;;30.73;19.00;;;9.70;99.90;;;;;;5096047;28;20063;-90
2021/11/13 00:55:50;;;;;;;28.60;17.77;;;9.70;99.90;;;;;;5057838;28;20020;-88
2021/11/13 00:58:16;;;;;;;30.50;18.60;;;9.70;99.90;;;;;;5086673;28;20191;-92
2021/11/13 01:00:41;;;;;;;31.55;20.02;;;9.70;99.90;;;;;;5089725;28;20032;-90
2021/11/13 01:03:08;;;;;;;27.02;18.70;;;9.70;99.90;;;;;;5058488;28;20020;-90
2021/11/13 01:05:34;;;;;;;31.23;19.40;;;9.70;99.90;;;;;;5075825;28;20378;-90
2021/11/13 01:08:00;;;;;;;33.05;18.60;;;9.70;99.90;;;;;;5052938;28;20066;-90
2021/11/13 01:10:25;;;;;;;30.85;18.45;;;9.70;99.90;;;;;;5066594;28;20036;-91
2021/11/13 01:12:52;;;;;;;28.38;18.33;;;9.70;99.90;;;;;;5058797;28;20048;-90
2021/11/13 01:15:20;;;;;;;30.40;18.35;;;9.70;99.90;;;;;;5061852;28;20039;-91
2021/11/13 01:17:46;;;;;;;29.55;19.15;;;9.70;99.90;;;;;;5062908;28;20047;-89
2021/11/13 01:20:14;;;;;;;30.08;18.45;;;9.70;99.90;;;;;;5061778;28;20039;-90
2021/11/13 01:22:41;;;;;;;31.38;19.48;;;9.70;99.90;;;;;;5067181;28;20024;-89
2021/11/13 01:25:07;;;;;;;26.27;17.48;;;9.70;99.90;;;;;;5058125;28;20055;-89
2021/11/13 01:27:33;;;;;;;27.60;17.85;;;9.70;99.90;;;;;;5094902;28;20048;-90
2021/11/13 01:29:59;;;;;;;31.50;18.02;;;9.70;99.90;;;;;;5077960;28;20491;-89
2021/11/13 01:32:25;;;;;;;29.33;18.08;;;9.70;99.90;;;;;;5079580;28;20162;-89
2021/11/13 01:34:51;;;;;;;28.65;17.90;;;9.70;99.90;;;;;;5082441;28;20036;-88
2021/11/13 01:37:17;;;;;;;28.33;18.05;;;9.80;99.90;;;;;;5082659;28;20434;-89
2021/11/13 01:39:43;;;;;;;27.13;17.65;;;9.80;99.90;;;;;;5095464;28;20047;-88
2021/11/13 01:42:09;;;;;;;27.33;19.48;;;9.80;99.90;;;;;;5077837;28;20503;-87
2021/11/13 01:44:35;;;;;;;29.17;18.15;;;9.80;99.90;;;;;;5077826;28;20129;-89
2021/11/13 01:47:01;;;;;;;30.40;18.42;;;9.80;99.90;;;;;;5068768;28;20115;-89
2021/11/13 01:49:27;;;;;;;28.50;18.42;;;9.80;99.90;;;;;;5064822;28;20077;-89
2021/11/13 01:51:53;;;;;;;29.55;18.50;;;9.80;99.90;;;;;;5096317;28;20050;-89
2021/11/13 01:54:21;;;;;;;31.10;18.02;;;9.80;99.90;;;;;;5077861;28;20081;-89
2021/11/13 01:56:50;;;;;;;24.58;17.35;;;9.80;99.90;;;;;;5060896;28;20040;-89
2021/11/13 01:59:18;;;;;;;24.23;17.02;;;9.80;99.90;;;;;;5077657;28;20039;-91
2021/11/13 02:01:45;;;;;;;23.67;17.25;;;9.80;99.90;;;;;;5080488;28;20179;-90
2021/11/13 02:04:11;;;;;;;24.73;17.05;;;9.90;99.90;;;;;;5096678;28;20024;-89
2021/11/13 02:06:36;;;;;;;26.30;16.42;;;9.90;99.90;;;;;;5077544;28;20016;-90
2021/11/13 02:09:06;;;;;;;24.42;16.10;;;9.90;99.90;;;;;;5077666;28;20454;-91
2021/11/13 02:11:32;;;;;;;26.38;17.65;;;9.90;99.90;;;;;;5077420;28;20107;-89
2021/11/13 02:13:59;;;;;;;24.80;16.67;;;9.90;99.90;;;;;;5077664;28;20060;-90
2021/11/13 02:16:26;;;;;;;24.13;15.93;;;9.90;99.90;;;;;;5056497;28;20035;-90
2021/11/13 02:18:52;;;;;;;22.65;15.85;;;10.00;99.90;;;;;;5091946;28;20028;-89
2021/11/13 02:21:18;;;;;;;22.23;15.82;;;9.90;99.90;;;;;;5097870;28;20016;-90
2021/11/13 02:23:44;;;;;;;23.85;15.52;;;9.90;99.90;;;;;;5094647;28;20063;-90
2021/11/13 02:26:10;;;;;;;25.73;16.35;;;9.90;99.90;;;;;;5077843;28;20048;-90
2021/11/13 02:28:37;;;;;;;24.27;16.23;;;10.00;99.90;;;;;;5094702;28;20438;-90
2021/11/13 02:31:05;;;;;;;21.60;15.85;;;10.00;99.90;;;;;;5063737;28;20028;-90
2021/11/13 02:33:32;;;;;;;23.48;16.02;;;10.00;99.90;;;;;;5096767;28;20030;-90
2021/11/13 02:35:59;;;;;;;26.30;17.20;;;10.00;99.90;;;;;;5060633;28;20536;-89
2021/11/13 02:38:29;;;;;;;22.98;16.45;;;10.00;99.90;;;;;;5077367;28;20043;-91
2021/11/13 02:40:58;;;;;;;24.40;17.10;;;10.00;99.90;;;;;;5080520;28;20020;-90
2021/11/13 02:43:26;;;;;;;23.13;16.83;;;10.00;99.90;;;;;;5077519;28;20089;-93
2021/11/13 02:46:02;;;;;;;21.45;16.58;;;10.00;99.90;;;;;;5092575;28;20020;-90
2021/11/13 02:48:33;;;;;;;23.08;16.88;;;10.10;99.90;;;;;;5077571;28;20070;-90
2021/11/13 02:50:59;;;;;;;23.33;17.15;;;10.10;99.90;;;;;;5076556;28;20020;-92
2021/11/13 02:53:27;;;;;;;23.38;16.48;;;10.10;99.90;;;;;;5077135;28;20039;-90
2021/11/13 02:55:54;;;;;;;26.08;17.25;;;10.10;99.90;;;;;;5077699;28;20020;-92
2021/11/13 02:58:21;;;;;;;23.33;17.10;;;10.10;99.90;;;;;;5079332;28;20456;-91
2021/11/13 03:00:50;;;;;;;26.73;17.17;;;10.10;99.90;;;;;;5059839;28;20032;-92
2021/11/13 03:03:18;;;;;;;25.02;17.55;;;10.10;99.90;;;;;;5077346;28;20039;-91
2021/11/13 03:05:47;;;;;;;23.30;17.67;;;10.10;99.90;;;;;;5061009;28;20036;-92
2021/11/13 03:08:13;;;;;;;23.55;17.63;;;10.20;99.90;;;;;;5095064;28;20020;-91
2021/11/13 03:10:39;;;;;;;27.98;19.25;;;10.20;99.90;;;;;;5080918;28;20036;-93
2021/11/13 03:13:05;;;;;;;23.98;17.35;;;10.20;99.90;;;;;;5081352;28;20039;-92
2021/11/13 03:15:31;;;;;;;25.92;19.10;;;10.20;99.90;;;;;;5098541;28;20040;-91
2021/11/13 03:17:58;;;;;;;24.80;17.77;;;10.20;99.90;;;;;;5081205;28;20028;-90
2021/11/13 03:20:27;;;;;;;23.83;16.73;;;10.20;99.90;;;;;;5099315;28;20476;-91
2021/11/13 03:22:55;;;;;;;25.73;17.67;;;10.20;99.90;;;;;;5067121;28;20020;-90
2021/11/13 03:25:23;;;;;;;26.20;19.58;;;10.30;99.90;;;;;;5081056;28;20384;-90
2021/11/13 03:27:57;;;;;;;27.30;18.77;;;10.20;99.90;;;;;;5082459;28;20020;-89
2021/11/13 03:30:23;;;;;;;25.63;18.08;;;10.30;99.90;;;;;;5080785;28;20047;-91
2021/11/13 03:32:50;;;;;;;28.45;19.50;;;10.30;99.90;;;;;;5080685;28;20460;-90
2021/11/13 03:35:19;;;;;;;26.85;17.83;;;10.30;99.90;;;;;;5063910;28;20059;-91
2021/11/13 03:37:46;;;;;;;27.77;19.88;;;10.30;99.90;;;;;;5080664;28;20531;-91
2021/11/13 03:40:12;;;;;;;28.75;20.67;;;10.30;99.90;;;;;;5063480;28;20444;-90
2021/11/13 03:42:40;;;;;;;25.70;19.13;;;10.30;99.90;;;;;;5080093;28;20154;-90
2021/11/13 03:45:06;;;;;;;29.10;20.30;;;10.30;99.90;;;;;;5092414;28;20039;-91
2021/11/13 03:47:33;;;;;;;25.88;17.83;;;10.30;99.90;;;;;;5085413;28;20018;-91
2021/11/13 03:49:59;;;;;;;28.00;19.60;;;10.40;99.90;;;;;;5098655;28;20023;-90
2021/11/13 03:52:24;;;;;;;27.77;19.55;;;10.30;99.90;;;;;;5081062;28;20016;-92
2021/11/13 03:54:50;;;;;;;27.77;20.45;;;10.30;99.90;;;;;;5080330;28;20134;-90
2021/11/13 03:57:16;;;;;;;30.48;21.13;;;10.40;99.90;;;;;;5080775;28;20082;-90
2021/11/13 03:59:42;;;;;;;29.05;19.90;;;10.40;99.90;;;;;;5080719;28;20115;-91
2021/11/13 04:02:11;;;;;;;29.30;19.25;;;10.40;99.90;;;;;;5081205;28;20055;-90
2021/11/13 04:04:41;;;;;;;24.83;18.58;;;10.40;99.90;;;;;;5078531;28;20063;-90
2021/11/13 04:07:07;;;;;;;26.67;19.10;;;10.40;99.90;;;;;;5063434;28;20086;-90
2021/11/13 04:09:33;;;;;;;30.23;21.20;;;10.40;99.90;;;;;;5079811;28;20039;-90
2021/11/13 04:12:04;;;;;;;25.52;18.80;;;10.50;99.90;;;;;;5062988;28;20127;-89
2021/11/13 04:14:31;;;;;;;29.98;20.15;;;10.50;99.90;;;;;;5097563;28;20040;-90
2021/11/13 04:16:56;;;;;;;24.98;18.58;;;10.50;99.90;;;;;;5097523;28;20107;-91
2021/11/13 04:19:22;;;;;;;29.60;19.38;;;10.50;99.90;;;;;;5098087;28;20042;-92
2021/11/13 04:21:48;;;;;;;26.52;19.33;;;10.50;99.90;;;;;;5062202;28;20032;-91
2021/11/13 04:24:13;;;;;;;29.58;18.73;;;10.60;99.90;;;;;;5080086;28;20036;-91
2021/11/13 04:26:39;;;;;;;26.23;18.33;;;10.60;99.90;;;;;;5045690;28;20058;-90
2021/11/13 04:29:05;;;;;;;24.83;18.23;;;10.60;99.90;;;;;;5059299;28;20025;-90
2021/11/13 04:31:30;;;;;;;27.15;18.45;;;10.60;99.90;;;;;;5071940;28;20028;-90
2021/11/13 04:34:00;;;;;;;23.35;17.75;;;10.60;99.90;;;;;;5078448;28;20028;-90
2021/11/13 04:36:30;;;;;;;24.55;18.13;;;10.60;99.90;;;;;;5079517;28;20073;-90
2021/11/13 04:38:55;;;;;;;22.92;16.80;;;10.60;99.90;;;;;;5051575;28;20024;-90
2021/11/13 04:41:21;;;;;;;26.77;18.65;;;10.60;99.90;;;;;;5087612;28;20035;-90
2021/11/13 04:43:47;;;;;;;26.88;17.88;;;10.60;99.90;;;;;;5063702;28;20050;-90
2021/11/13 04:46:13;;;;;;;23.05;18.13;;;10.60;99.90;;;;;;5074220;28;20388;-90
2021/11/13 04:48:38;;;;;;;30.10;18.60;;;10.60;99.90;;;;;;5075886;28;20476;-91
2021/11/13 04:51:04;;;;;;;23.35;17.20;;;10.60;99.90;;;;;;5076216;28;20024;-91
2021/11/13 04:53:30;;;;;;;24.85;17.52;;;10.60;99.90;;;;;;5079138;28;20032;-90
2021/11/13 04:55:55;;;;;;;24.90;17.30;;;10.60;99.90;;;;;;5079418;28;20032;-90
2021/11/13 04:58:21;;;;;;;24.92;17.52;;;10.60;99.90;;;;;;5080586;28;20078;-91
2021/11/13 05:00:47;;;;;;;23.33;17.20;;;10.60;99.90;;;;;;5095898;28;20031;-92
2021/11/13 05:03:13;;;;;;;25.65;18.25;;;10.60;99.90;;;;;;5097595;28;20020;-92
2021/11/13 05:05:39;;;;;;;23.05;16.83;;;10.70;99.90;;;;;;5096791;28;20023;-91
2021/11/13 05:08:08;;;;;;;24.45;17.63;;;10.70;99.90;;;;;;5077677;28;20036;-92
2021/11/13 05:10:34;;;;;;;22.58;16.35;;;10.70;99.90;;;;;;5061872;28;20610;-93
2021/11/13 05:13:02;;;;;;;25.77;17.83;;;10.70;99.90;;;;;;5097223;28;20055;-93
2021/11/13 05:15:28;;;;;;;25.75;17.58;;;10.70;99.90;;;;;;5078002;28;20016;-94
2021/11/13 05:17:56;;;;;;;23.27;17.27;;;10.70;99.90;;;;;;5093594;28;20155;-93
2021/11/13 05:20:24;;;;;;;20.83;15.88;;;10.70;99.90;;;;;;5078530;28;20111;-92
2021/11/13 05:22:50;;;;;;;21.98;16.40;;;10.70;99.90;;;;;;5078272;28;20035;-93
2021/11/13 05:25:20;;;;;;;22.88;15.45;;;10.70;99.90;;;;;;5083071;28;20012;-91
2021/11/13 05:27:47;;;;;;;21.13;16.23;;;10.70;99.90;;;;;;5089251;28;20044;-92
2021/11/13 05:30:14;;;;;;;23.75;17.02;;;10.70;99.90;;;;;;5072554;28;20550;-91
2021/11/13 05:32:41;;;;;;;21.85;16.35;;;10.70;99.90;;;;;;5077442;28;20111;-92
2021/11/13 05:35:10;;;;;;;21.30;16.30;;;10.70;99.90;;;;;;5078164;28;20027;-91
2021/11/13 05:37:37;;;;;;;20.80;15.38;;;10.70;99.90;;;;;;5084811;28;20027;-92
2021/11/13 05:40:04;;;;;;;22.80;17.02;;;10.70;99.90;;;;;;5079783;28;20020;-92
2021/11/13 05:42:30;;;;;;;23.02;17.45;;;10.70;99.90;;;;;;5078007;28;20019;-92
2021/11/13 05:44:56;;;;;;;23.52;16.25;;;10.70;99.90;;;;;;5060939;28;20452;-92
2021/11/13 05:47:24;;;;;;;19.67;15.50;;;10.70;99.90;;;;;;5080752;28;20024;-93
2021/11/13 05:49:51;;;;;;;21.95;15.15;;;10.70;99.90;;;;;;5076778;28;20020;-92
2021/11/13 05:52:17;;;;;;;20.35;16.60;;;10.70;99.90;;;;;;5078024;28;20452;-93
2021/11/13 05:54:43;;;;;;;19.92;14.95;;;10.70;99.90;;;;;;5078387;28;20028;-93
2021/11/13 05:57:16;;;;;;;20.35;14.05;;;10.70;99.90;;;;;;5096552;28;20077;-93
2021/11/13 05:59:44;;;;;;;18.83;14.48;;;10.70;99.90;;;;;;5080554;28;20020;-94
2021/11/13 06:02:10;;;;;;;19.80;15.50;;;10.70;99.90;;;;;;5077450;28;20024;-94
2021/11/13 06:04:35;;;;;;;20.95;15.25;;;10.70;99.90;;;;;;5060676;28;20454;-94
2021/11/13 06:07:02;;;;;;;20.08;14.80;;;10.70;99.90;;;;;;5060737;28;20024;-94
2021/11/13 06:09:30;;;;;;;20.08;14.02;;;10.70;99.90;;;;;;5076888;28;20161;-94
2021/11/13 06:11:59;;;;;;;19.88;15.07;;;10.70;99.90;;;;;;5079610;28;20124;-93
2021/11/13 06:14:27;;;;;;;20.25;15.55;;;10.70;99.90;;;;;;5064914;28;20051;-94
2021/11/13 06:16:55;;;;;;;22.60;16.85;;;10.70;99.90;;;;;;5078243;28;20016;-94
2021/11/13 06:19:21;;;;;;;24.45;17.63;;;10.70;99.90;;;;;;5077200;28;20103;-94
2021/11/13 06:21:47;;;;;;;22.63;17.35;;;10.70;99.90;;;;;;5077558;28;20468;-93
2021/11/13 06:24:13;;;;;;;24.08;16.98;;;10.70;99.90;;;;;;5079564;28;20118;-94
2021/11/13 06:26:39;;;;;;;24.10;16.63;;;10.70;99.90;;;;;;5077586;28;20047;-92
2021/11/13 06:29:08;;;;;;;24.23;17.60;;;10.70;99.90;;;;;;5095424;28;20031;-95
2021/11/13 06:31:34;;;;;;;25.08;17.60;;;10.70;99.90;;;;;;5078404;28;20083;-93
2021/11/13 06:34:02;;;;;;;23.23;16.33;;;10.70;99.90;;;;;;5077337;28;20051;-95
2021/11/13 06:36:28;;;;;;;25.35;17.20;;;10.70;99.90;;;;;;5077473;28;20020;-92
2021/11/13 06:38:54;;;;;;;23.02;17.15;;;10.70;99.90;;;;;;5081228;28;20031;-95
2021/11/13 06:41:25;;;;;;;23.15;17.13;;;10.70;99.90;;;;;;5077827;28;20016;-95
2021/11/13 06:43:58;;;;;;;24.05;16.38;;;10.70;99.90;;;;;;5069378;28;20501;-95
2021/11/13 06:46:24;;;;;;;21.80;16.35;;;10.70;99.90;;;;;;5077060;28;20055;-93
2021/11/13 06:48:50;;;;;;;21.13;15.75;;;10.70;99.90;;;;;;5061129;28;20032;-95
2021/11/13 06:51:16;;;;;;;21.85;16.25;;;10.70;99.90;;;;;;5091255;28;20070;-93
2021/11/13 06:53:42;;;;;;;20.80;14.73;;;10.70;99.90;;;;;;5084954;28;20026;-94
2021/11/13 06:56:11;;;;;;;22.25;15.82;;;10.70;99.90;;;;;;5068342;28;20022;-94
2021/11/13 06:58:37;;;;;;;21.80;16.13;;;10.70;99.90;;;;;;5082269;28;20056;-93
2021/11/13 07:01:07;;;;;;;17.65;14.45;;;10.60;99.90;;;;;;5078387;28;20036;-95
2021/11/13 07:03:33;;;;;;;21.52;16.10;;;10.60;99.90;;;;;;5076963;28;20016;-93
2021/11/13 07:05:59;;;;;;;19.88;15.38;;;10.70;99.90;;;;;;5080044;28;20034;-94
2021/11/13 07:08:24;;;;;;;19.35;15.13;;;10.60;99.90;;;;;;5080229;28;20024;-93
2021/11/13 07:10:53;;;;;;;21.42;14.65;;;10.60;99.90;;;;;;5078089;28;20031;-93
2021/11/13 07:13:26;;;;;;;20.23;15.05;;;10.60;99.90;;;;;;5091861;28;20073;-93
2021/11/13 07:15:53;;;;;;;19.25;14.60;;;10.60;99.90;;;;;;5080212;28;20123;-95
2021/11/13 07:18:19;;;;;;;20.15;15.30;;;10.60;99.90;;;;;;5097251;28;20368;-94
2021/11/13 07:20:57;;;;;;;19.98;15.57;;;10.60;99.90;;;;;;5072210;28;20031;-93
2021/11/13 07:23:23;;;;;;;22.02;15.52;;;10.60;99.90;;;;;;5068695;28;20115;-94
2021/11/13 07:25:54;;;;;;;21.45;15.40;;;10.60;99.90;;;;;;5079507;28;20048;-94
2021/11/13 07:28:48;;;;;;;23.27;17.48;;;10.60;99.90;;;;;;5083112;28;20020;-94
2021/11/13 07:31:15;;;;;;;20.30;15.00;;;10.60;99.90;;;;;;5070931;28;20544;-94
2021/11/13 07:33:41;;;;;;;20.98;15.80;;;10.60;99.90;;;;;;5079623;28;20024;-93
2021/11/13 07:36:08;;;;;;;22.15;16.25;;;10.60;99.90;;;;;;5080438;28;20034;-92
2021/11/13 07:38:39;;;;;;;25.20;17.33;;;10.70;99.90;;;;;;5080464;28;20153;-94
2021/11/13 07:41:06;;;;;;;23.90;17.10;;;10.70;99.90;;;;;;5097461;28;20020;-92
2021/11/13 07:43:32;;;;;;;24.80;17.73;;;10.70;99.90;;;;;;5078574;28;20035;-92
2021/11/13 07:45:58;;;;;;;24.42;16.77;;;10.70;99.90;;;;;;5096791;28;20048;-95
2021/11/13 07:48:24;;;;;;;27.63;16.65;;;10.80;99.90;;;;;;5080343;28;20484;-91
2021/11/13 07:50:50;;;;;;;24.08;17.23;;;10.80;99.90;;;;;;5078079;28;20016;-91
2021/11/13 07:53:16;;;;;;;22.05;16.08;;;10.70;99.90;;;;;;5076442;28;20050;-92
2021/11/13 07:55:44;;;;;;;24.40;17.83;;;10.80;99.90;;;;;;5098292;28;20051;-92
2021/11/13 07:58:15;;;;;;;23.00;16.75;;;10.80;99.90;;;;;;5070477;28;20024;-91
2021/11/13 08:00:42;;;;;;;24.38;17.38;;;10.80;99.90;;;;;;5083960;28;20466;-93
2021/11/13 08:03:10;;;;;;;22.20;17.20;;;10.90;99.90;;;;;;5098508;28;20456;-92
2021/11/13 08:05:36;;;;;;;25.45;18.38;;;10.90;99.90;;;;;;5084171;28;20024;-92
2021/11/13 08:08:02;;;;;;;25.75;18.77;;;10.90;99.90;;;;;;5068051;28;20031;-93
2021/11/13 08:10:28;;;;;;;23.95;17.20;;;10.90;99.90;;;;;;5078459;28;20028;-92
2021/11/13 08:12:54;;;;;;;23.17;16.70;;;10.90;99.90;;;;;;5079915;28;20080;-92
2021/11/13 08:15:20;;;;;;;23.35;17.55;;;10.90;99.90;;;;;;5080032;28;20487;-92
2021/11/13 08:17:49;;;;;;;24.45;17.92;;;11.00;99.90;;;;;;5080033;28;20111;-92
2021/11/13 08:20:18;;;;;;;24.38;17.77;;;11.00;99.90;;;;;;5082265;28;20141;-92
2021/11/13 08:22:44;;;;;;;26.73;19.33;;;11.10;99.90;;;;;;5082234;28;20111;-92
2021/11/13 08:25:17;;;;;;;32.67;20.83;;;11.00;99.90;;;;;;5079341;28;20028;-91
2021/11/13 08:27:51;;;;;;;27.70;19.83;;;11.00;99.90;;;;;;5063512;28;20048;-93
2021/11/13 08:30:17;;;;;;;29.23;19.00;;;11.10;99.90;;;;;;5078871;28;20024;-92
2021/11/13 08:32:47;;;;;;;29.10;20.05;;;11.10;99.90;;;;;;5079103;28;20024;-93
2021/11/13 08:35:14;;;;;;;33.03;21.93;;;11.10;99.90;;;;;;5086281;28;20039;-91
2021/11/13 08:37:42;;;;;;;30.85;20.83;;;11.10;99.90;;;;;;5088911;28;20281;-91
2021/11/13 08:40:11;;;;;;;31.70;22.58;;;11.10;99.90;;;;;;5098257;28;20077;-92
2021/11/13 08:42:37;;;;;;;29.58;22.25;;;11.10;99.90;;;;;;5079093;28;20100;-91
2021/11/13 08:45:07;;;;;;;34.03;22.90;;;11.20;99.90;;;;;;5084281;28;20028;-91
2021/11/13 08:47:36;;;;;;;30.42;22.02;;;11.20;99.90;;;;;;5079938;28;20039;-91
2021/11/13 08:50:05;;;;;;;32.65;22.45;;;11.20;99.90;;;;;;5079904;28;20029;-91
2021/11/13 08:52:31;;;;;;;32.53;22.85;;;11.20;99.90;;;;;;5079112;28;20510;-92
2021/11/13 08:54:59;;;;;;;29.80;21.00;;;11.20;99.90;;;;;;5079018;28;20028;-91
2021/11/13 08:57:27;;;;;;;31.75;22.00;;;11.30;99.90;;;;;;5079238;28;20515;-91
2021/11/13 08:59:53;;;;;;;32.60;22.52;;;11.30;99.90;;;;;;5097245;28;20115;-92
2021/11/13 09:02:24;;;;;;;32.75;22.20;;;11.30;99.90;;;;;;5067238;28;20542;-91
2021/11/13 09:04:52;;;;;;;36.33;22.10;;;11.30;99.90;;;;;;5079212;28;20460;-91
2021/11/13 09:07:20;;;;;;;34.00;21.92;;;11.30;99.90;;;;;;5078991;28;20054;-91
2021/11/13 09:09:47;;;;;;;34.95;20.75;;;11.40;99.90;;;;;;5079591;28;20139;-94
2021/11/13 09:12:22;;;;;;;28.38;19.70;;;11.40;99.90;;;;;;5093260;28;20020;-93
2021/11/13 09:14:52;;;;;;;33.03;20.63;;;11.40;99.90;;;;;;5080027;28;20460;-92
2021/11/13 09:17:20;;;;;;;30.10;20.88;;;11.40;99.90;;;;;;5094002;28;20057;-93
2021/11/13 09:19:46;;;;;;;31.60;20.70;;;11.50;99.90;;;;;;5087919;28;20508;-94
2021/11/13 09:22:12;;;;;;;31.88;20.05;;;11.40;99.90;;;;;;5078715;28;20056;-93
2021/11/13 09:24:38;;;;;;;28.77;19.77;;;11.50;99.90;;;;;;5084485;28;20031;-90
2021/11/13 09:27:04;;;;;;;31.05;19.48;;;11.50;99.90;;;;;;5039695;28;20059;-89
2021/11/13 09:29:30;;;;;;;29.95;19.92;;;11.60;99.90;;;;;;5057766;28;20028;-90
2021/11/13 09:31:56;;;;;;;31.38;20.05;;;11.60;99.90;;;;;;5067956;28;20055;-91
2021/11/13 09:34:22;;;;;;;30.88;19.67;;;11.60;99.90;;;;;;5058236;28;20035;-93
2021/11/13 09:36:48;;;;;;;32.38;21.50;;;11.60;99.90;;;;;;5064765;28;20054;-92
2021/11/13 09:39:17;;;;;;;30.20;19.65;;;11.60;99.90;;;;;;5091163;28;20020;-93
2021/11/13 09:41:44;;;;;;;30.65;19.15;;;11.60;99.90;;;;;;5042630;28;20059;-95
2021/11/13 09:44:22;;;;;;;33.85;19.63;;;11.70;99.90;;;;;;5061491;28;20025;-95
2021/11/13 09:46:51;;;;;;;30.90;20.30;;;11.70;99.90;;;;;;5075532;28;20021;-95
2021/11/13 09:49:18;;;;;;;30.80;19.08;;;11.80;99.90;;;;;;5070885;28;20031;-92
2021/11/13 09:51:46;;;;;;;26.38;17.88;;;11.80;99.90;;;;;;5062583;28;20063;-93
2021/11/13 09:54:14;;;;;;;26.30;16.95;;;11.80;99.90;;;;;;5059813;28;20020;-92
2021/11/13 09:56:40;;;;;;;37.25;21.30;;;11.80;99.90;;;;;;5068072;28;20029;-92
2021/11/13 09:59:06;;;;;;;31.67;20.23;;;11.80;99.90;;;;;;5059064;28;20032;-87
2021/11/13 10:01:32;;;;;;;27.65;18.23;;;11.80;99.90;;;;;;5065111;28;20039;-94
2021/11/13 10:04:21;;;;;;;30.65;19.55;;;11.90;99.90;;;;;;5065401;28;20101;-95
2021/11/13 10:06:48;;;;;;;31.88;19.48;;;11.90;99.90;;;;;;5062499;28;20121;-90
2021/11/13 10:09:19;;;;;;;29.38;17.85;;;11.90;99.90;;;;;;5056092;28;20020;-93
2021/11/13 10:11:49;;;;;;;30.33;18.00;;;11.90;99.90;;;;;;5042404;28;20025;-89
2021/11/13 10:14:54;;;;;;;33.80;19.43;;;11.90;99.90;;;;;;5065447;28;20493;-94
2021/11/13 10:18:16;;;;;;;;;;;;;;;;;;;;;
2021/11/13 10:21:12;;;;;;;25.52;15.10;;;11.90;99.90;;;;;;5016321;28;20589;-93
2021/11/13 10:23:42;;;;;;;26.65;15.68;;;12.00;99.90;;;;;;5057321;28;20582;-94
2021/11/13 10:26:25;;;;;;;24.57;15.70;;;12.00;99.90;;;;;;5062483;28;20024;-95
2021/11/13 10:28:59;;;;;;;26.23;15.15;;;12.00;99.90;;;;;;5081965;28;20028;-92
2021/11/13 10:31:36;;;;;;;23.98;14.88;;;12.00;99.90;;;;;;5062267;28;20024;-95
2021/11/13 10:34:15;;;;;;;23.73;14.23;;;12.00;99.90;;;;;;5079715;28;20541;-95
2021/11/13 10:36:58;;;;;;;23.95;13.88;;;12.00;99.90;;;;;;5077420;28;20032;-94
2021/11/13 10:39:29;;;;;;;24.52;14.00;;;12.00;99.90;;;;;;5078898;28;20081;-95
2021/11/13 10:42:11;;;;;;;25.20;14.77;;;12.00;99.90;;;;;;5078546;28;20073;-94
2021/11/13 10:44:58;;;;;;;;;;;;;;;;;;;;;
2021/11/13 10:47:46;;;;;;;20.23;12.45;;;12.10;99.90;;;;;;5097711;28;20114;-93
2021/11/13 10:50:26;;;;;;;20.90;13.35;;;12.10;99.90;;;;;;5089957;28;20043;-93
2021/11/13 10:53:24;;;;;;;20.98;13.60;;;12.10;99.90;;;;;;5073119;28;20435;-96
2021/11/13 10:56:18;;;;;;;21.27;13.68;;;12.20;99.90;;;;;;5081975;28;20024;-93
2021/11/13 10:58:50;;;;;;;27.50;15.68;;;12.20;99.90;;;;;;5079203;28;20107;-92
2021/11/13 11:01:36;;;;;;;28.92;16.58;;;12.20;99.90;;;;;;5077908;28;20480;-95
2021/11/13 11:04:18;;;;;;;28.17;16.17;;;12.20;99.90;;;;;;5078357;28;20035;-96
2021/11/13 11:06:50;;;;;;;24.13;14.82;;;12.20;99.90;;;;;;5078180;28;20028;-96
2021/11/13 11:09:20;;;;;;;23.63;14.00;;;12.20;99.90;;;;;;5057884;28;20465;-96
2021/11/13 11:11:51;;;;;;;22.15;13.82;;;12.20;99.90;;;;;;5065359;28;20623;-95
2021/11/13 11:14:22;;;;;;;23.35;13.48;;;12.30;99.90;;;;;;5077029;28;20020;-94
2021/11/13 11:17:12;;;;;;;26.77;13.55;;;12.30;99.90;;;;;;5098519;28;20027;-94
2021/11/13 11:19:48;;;;;;;;;;;;;;;;;;;;;
2021/11/13 11:22:45;;;;;;;21.85;12.52;;;12.30;99.90;;;;;;5099301;28;20140;-94
2021/11/13 11:25:14;;;;;;;20.67;12.10;;;12.40;99.90;;;;;;5088941;28;20035;-93
2021/11/13 11:27:44;;;;;;;21.17;12.60;;;12.40;99.90;;;;;;5109622;28;20082;-93
2021/11/13 11:30:14;;;;;;;20.25;12.15;;;12.40;99.90;;;;;;5095622;28;20121;-89
2021/11/13 11:32:45;;;;;;;19.05;11.02;;;12.50;99.90;;;;;;5092013;28;20035;-92
2021/11/13 11:35:21;;;;;;;20.48;11.57;;;12.40;99.90;;;;;;5091879;28;20100;-93
2021/11/13 11:38:06;;;;;;;20.00;11.52;;;12.50;99.90;;;;;;5094156;28;20063;-96
2021/11/13 11:40:46;;;;;;;18.98;11.65;;;12.50;99.90;;;;;;5089099;28;20020;-95
2021/11/13 11:43:13;;;;;;;20.88;11.55;;;12.50;99.90;;;;;;5082937;28;20024;-91
2021/11/13 11:45:50;;;;;;;19.23;11.00;;;12.60;99.90;;;;;;5098189;28;20024;-94
2021/11/13 11:48:18;;;;;;;22.25;11.77;;;12.60;99.90;;;;;;5098469;28;20081;-93
2021/11/13 11:50:48;;;;;;;18.08;11.38;;;12.60;99.90;;;;;;5053534;28;20031;-95
2021/11/13 11:53:18;;;;;;;18.97;11.40;;;12.60;99.90;;;;;;5082335;28;20029;-95
2021/11/13 11:56:56;;;;;;;17.27;10.57;;;12.70;99.90;;;;;;5079935;28;20301;-94
2021/11/13 11:58:55;;;;;;;16.63;10.63;;;12.70;99.90;;;;;;5066144;28;20036;-95
2021/11/13 12:01:37;;;;;;;18.70;11.10;;;12.70;99.90;;;;;;5093280;28;20024;-93
2021/11/13 12:04:38;;;;;;;17.13;10.85;;;12.70;99.90;;;;;;5085861;28;20100;-93
2021/11/13 12:07:33;;;;;;;16.65;10.48;;;12.70;99.90;;;;;;5107499;28;20066;-91
2021/11/13 12:10:12;;;;;;;14.60;9.40;;;12.80;99.90;;;;;;5081863;28;20461;-96
2021/11/13 12:13:01;;;;;;;15.93;9.18;;;12.80;99.90;;;;;;5077783;28;20024;-96
2021/11/13 12:15:29;;;;;;;13.00;8.77;;;12.80;99.90;;;;;;5085298;28;20024;-92
2021/11/13 12:18:20;;;;;;;15.68;9.60;;;12.90;99.90;;;;;;5080841;28;20119;-93
2021/11/13 12:20:52;;;;;;;16.95;9.27;;;12.90;99.90;;;;;;5081779;28;20110;-92
2021/11/13 12:23:29;;;;;;;17.17;9.55;;;12.90;99.90;;;;;;5099759;28;20083;-93
2021/11/13 12:26:23;;;;;;;14.60;8.43;;;13.00;99.90;;;;;;5083300;28;20043;-93
2021/11/13 12:28:59;;;;;;;15.48;8.68;;;13.00;99.90;;;;;;5081403;28;20028;-90
2021/11/13 12:31:45;;;;;;;15.00;8.60;;;13.00;99.90;;;;;;5075681;28;20054;-79
2021/11/13 12:34:21;;;;;;;15.10;8.02;;;13.10;99.90;;;;;;5093942;28;20476;-94
2021/11/13 12:37:24;;;;;;;11.73;7.45;;;13.10;99.90;;;;;;5097690;28;20028;-93
2021/11/13 12:39:52;;;;;;;12.07;7.47;;;13.10;99.90;;;;;;5053607;28;20036;-92
2021/11/13 12:42:25;;;;;;;14.20;8.02;;;13.20;99.90;;;;;;5073339;28;20012;-92
2021/11/13 12:44:59;;;;;;;12.40;7.93;;;13.20;99.90;;;;;;5083380;28;20123;-93
2021/11/13 12:48:01;;;;;;;;;;;;;;;;;;;;;